Time;durP1;ratioP1;P1;durP2;ratioP2;P2;SDS_P1;SDS_P2;PMS_P1;PMS_P2;Temp;Humidity;BMP_temperature;BMP_pressure;BME280_temperature;BME280_humidity;BME280_pressure;Samples;Min_cycle;Max_cycle;Signal;HPM_P1;HPM_P2
2024/01/15 00:01:29;;;;;;;;;9.00;8.00;;;;;6.13;100.00;96977.72;5812375;29;96792;-57
2024/01/15 00:04:32;;;;;;;;;9.00;8.20;;;;;6.34;100.00;96992.28;5829290;29;96397;-57
2024/01/15 00:07:36;;;;;;;;;8.67;7.00;;;;;6.31;100.00;96982.84;5817121;29;97303;-57
2024/01/15 00:10:41;;;;;;;;;10.40;9.00;;;;;6.25;100.00;96983.03;5831121;29;96953;-57
2024/01/15 00:13:44;;;;;;;;;9.00;7.50;;;;;6.21;100.00;96985.34;5824635;29;96802;-57
2024/01/15 00:16:49;;;;;;;;;9.00;8.00;;;;;6.30;100.00;96975.91;5822165;29;96277;-57
2024/01/15 00:19:52;;;;;;;;;9.00;8.00;;;;;6.26;100.00;96968.56;5828410;29;96486;-57
2024/01/15 00:22:56;;;;;;;;;9.00;8.00;;;;;6.37;100.00;96967.69;5826014;29;97004;-58
2024/01/15 00:26:00;;;;;;;;;6.00;6.00;;;;;6.27;100.00;96962.97;5827307;29;96274;-57
2024/01/15 00:29:04;;;;;;;;;8.80;8.40;;;;;6.32;100.00;96955.03;5820590;29;96750;-58
2024/01/15 00:32:07;;;;;;;;;7.00;6.40;;;;;6.35;100.00;96953.75;5827132;29;96787;-53
2024/01/15 00:35:10;;;;;;;;;6.60;6.00;;;;;6.39;100.00;96955.72;5830908;29;96287;-53
2024/01/15 00:38:13;;;;;;;;;7.75;7.50;;;;;6.55;100.00;96962.09;5839470;29;97199;-53
2024/01/15 00:41:19;;;;;;;;;6.80;5.80;;;;;6.46;100.00;96937.63;5829777;29;96290;-54
2024/01/15 00:44:22;;;;;;;;;6.25;6.25;;;;;6.68;100.00;96950.28;5837422;29;96327;-53
2024/01/15 00:47:25;;;;;;;;;7.00;6.00;;;;;6.72;100.00;96946.88;5824326;29;96353;-53
2024/01/15 00:50:28;;;;;;;;;5.60;5.60;;;;;6.54;100.00;96933.75;5830339;29;96040;-53
2024/01/15 00:53:32;;;;;;;;;7.00;6.00;;;;;6.53;100.00;96938.28;5829955;29;96378;-54
2024/01/15 00:56:37;;;;;;;;;5.20;5.20;;;;;6.60;100.00;96935.41;5826791;29;96306;-53
2024/01/15 00:59:40;;;;;;;;;5.00;4.80;;;;;6.64;100.00;96941.94;5832043;29;97749;-53
2024/01/15 01:02:43;;;;;;;;;7.60;6.60;;;;;6.74;100.00;96934.06;5821582;30;96395;-53
2024/01/15 01:05:46;;;;;;;;;6.60;6.00;;;;;6.77;100.00;96936.25;5826228;29;96917;-53
2024/01/15 01:08:50;;;;;;;;;6.60;6.00;;;;;6.73;100.00;96937.78;5836193;29;96315;-53
2024/01/15 01:11:54;;;;;;;;;5.00;5.00;;;;;6.72;100.00;96936.16;5821676;29;96353;-54
2024/01/15 01:14:58;;;;;;;;;6.00;6.00;;;;;6.73;100.00;96931.63;5829192;29;96353;-53
2024/01/15 01:18:02;;;;;;;;;8.00;7.00;;;;;6.72;100.00;96930.81;5834758;29;96452;-53
2024/01/15 01:21:05;;;;;;;;;7.25;6.50;;;;;6.80;100.00;96918.84;5828180;29;97246;-54
2024/01/15 01:24:08;;;;;;;;;7.00;6.00;;;;;6.84;100.00;96922.69;5823842;29;96461;-52
2024/01/15 01:27:12;;;;;;;;;6.40;5.40;;;;;6.86;100.00;96910.66;5848508;29;96965;-52
2024/01/15 01:30:16;;;;;;;;;6.00;6.00;;;;;6.75;100.00;96908.88;5834684;29;96467;-54
2024/01/15 01:33:19;;;;;;;;;6.00;5.00;;;;;6.71;100.00;96909.63;5829592;29;97027;-53
2024/01/15 01:36:22;;;;;;;;;6.80;6.00;;;;;6.55;100.00;96905.91;5827423;29;96264;-53
2024/01/15 01:39:26;;;;;;;;;5.00;5.00;;;;;6.54;100.00;96896.25;5835138;29;96735;-56
2024/01/15 01:42:30;;;;;;;;;6.00;5.00;;;;;6.37;100.00;96887.41;5842648;29;96383;-59
2024/01/15 01:45:33;;;;;;;;;5.00;5.00;;;;;6.42;100.00;96885.63;5828661;29;96444;-61
2024/01/15 01:48:37;;;;;;;;;7.00;6.00;;;;;6.51;100.00;96880.66;5828391;29;96792;-60
2024/01/15 01:51:40;;;;;;;;;5.25;5.00;;;;;6.42;100.00;96879.47;5836856;29;96937;-60
2024/01/15 01:54:44;;;;;;;;;7.00;5.80;;;;;6.43;100.00;96865.84;5844514;29;96991;-61
2024/01/15 01:57:48;;;;;;;;;6.40;6.00;;;;;6.34;100.00;96872.66;5824351;29;96786;-60
2024/01/15 02:00:52;;;;;;;;;6.00;4.00;;;;;6.21;100.00;96842.72;5824131;29;96280;-56
2024/01/15 02:03:56;;;;;;;;;5.00;4.60;;;;;6.31;100.00;96851.72;5924175;23;96607;-57
2024/01/15 02:07:00;;;;;;;;;4.20;4.00;;;;;6.22;100.00;96850.53;5915690;29;96694;-57
2024/01/15 02:10:03;;;;;;;;;6.50;5.50;;;;;6.14;100.00;96845.59;5922456;29;96468;-57
2024/01/15 02:13:08;;;;;;;;;4.00;3.75;;;;;6.19;100.00;96843.00;5924566;29;96655;-57
2024/01/15 02:16:11;;;;;;;;;6.00;6.00;;;;;6.28;100.00;96836.19;5922344;29;96315;-57
2024/01/15 02:19:16;;;;;;;;;5.00;4.75;;;;;6.25;100.00;96846.56;5910407;29;96620;-57
2024/01/15 02:22:20;;;;;;;;;4.80;4.80;;;;;6.27;100.00;96826.53;5915125;29;96468;-57
2024/01/15 02:25:24;;;;;;;;;5.00;4.00;;;;;6.19;100.00;96834.16;5911154;29;96871;-57
2024/01/15 02:28:27;;;;;;;;;5.60;5.00;;;;;6.12;100.00;96822.78;5928819;29;96759;-57
2024/01/15 02:31:30;;;;;;;;;6.00;5.20;;;;;6.02;100.00;96832.28;5909401;29;96297;-57
2024/01/15 02:34:34;;;;;;;;;6.00;6.00;;;;;6.04;100.00;96819.50;5921579;29;96564;-57
2024/01/15 02:37:37;;;;;;;;;6.00;5.00;;;;;6.09;100.00;96814.22;5917927;29;96512;-57
2024/01/15 02:40:41;;;;;;;;;4.60;4.60;;;;;6.07;100.00;96799.44;5927996;29;96188;-57
2024/01/15 02:43:45;;;;;;;;;6.00;5.00;;;;;6.05;100.00;96814.94;5910188;29;96831;-57
2024/01/15 02:46:48;;;;;;;;;6.00;5.00;;;;;5.93;100.00;96800.84;5919195;29;96354;-57
2024/01/15 02:49:51;;;;;;;;;7.00;7.00;;;;;5.99;100.00;96802.53;5923937;29;97076;-57
2024/01/15 02:52:54;;;;;;;;;5.00;5.00;;;;;5.93;100.00;96796.31;5916018;29;96580;-57
2024/01/15 02:55:59;;;;;;;;;7.00;7.00;;;;;5.97;100.00;96793.94;5906797;29;97578;-57
2024/01/15 02:59:02;;;;;;;;;7.00;7.00;;;;;5.87;100.00;96775.06;5924434;29;97750;-57
2024/01/15 03:02:05;;;;;;;;;8.00;8.00;;;;;6.00;100.00;96785.44;5923065;29;96687;-57
2024/01/15 03:05:08;;;;;;;;;11.00;7.75;;;;;5.88;100.00;96780.19;5924194;29;96451;-57
2024/01/15 03:08:12;;;;;;;;;6.40;6.40;;;;;5.88;100.00;96780.19;5911113;29;97727;-57
2024/01/15 03:11:16;;;;;;;;;7.00;7.00;;;;;5.94;100.00;96779.22;5924001;29;98418;-57
2024/01/15 03:14:20;;;;;;;;;6.60;6.60;;;;;6.00;100.00;96770.22;5914943;29;96387;-57
2024/01/15 03:17:23;;;;;;;;;7.00;6.00;;;;;5.91;100.00;96765.53;5927852;29;96582;-57
2024/01/15 03:20:26;;;;;;;;;8.60;7.00;;;;;5.86;100.00;96763.53;5898910;29;96625;-56
2024/01/15 03:23:29;;;;;;;;;5.00;5.00;;;;;5.84;100.00;96760.28;5918888;29;96329;-56
2024/01/15 03:26:33;;;;;;;;;4.60;4.00;;;;;5.80;100.00;96761.03;5920751;29;96399;-57
2024/01/15 03:29:37;;;;;;;;;4.00;4.00;;;;;5.80;100.00;96759.16;5934349;29;96187;-56
2024/01/15 03:32:40;;;;;;;;;7.00;5.40;;;;;5.89;100.00;96763.09;5926787;29;96523;-56
2024/01/15 03:35:43;;;;;;;;;5.00;3.40;;;;;5.89;100.00;96768.44;5920990;29;96963;-56
2024/01/15 03:38:46;;;;;;;;;4.75;4.75;;;;;5.88;100.00;96768.66;5918819;29;96335;-56
2024/01/15 03:41:51;;;;;;;;;4.00;4.00;;;;;5.91;100.00;96750.25;5923709;29;96450;-56
2024/01/15 03:44:54;;;;;;;;;7.25;5.00;;;;;5.87;100.00;96742.97;5924371;29;97090;-56
2024/01/15 03:47:57;;;;;;;;;5.20;5.00;;;;;5.84;100.00;96744.25;5915883;29;96339;-56
2024/01/15 03:51:00;;;;;;;;;3.00;3.00;;;;;5.70;100.00;96724.25;5933118;29;96245;-56
2024/01/15 03:54:03;;;;;;;;;5.00;4.00;;;;;5.67;100.00;96722.03;5933515;29;96440;-56
2024/01/15 03:57:08;;;;;;;;;4.00;4.00;;;;;5.71;100.00;96722.38;5921849;29;96735;-56
2024/01/15 04:00:12;;;;;;;;;5.00;4.00;;;;;5.64;100.00;96720.69;5921084;29;96371;-56
2024/01/15 04:03:15;;;;;;;;;4.20;3.20;;;;;5.65;100.00;96716.97;5922239;29;96336;-55
2024/01/15 04:06:18;;;;;;;;;5.60;5.60;;;;;5.67;100.00;96714.03;5919099;29;96977;-56
2024/01/15 04:09:22;;;;;;;;;5.00;4.40;;;;;5.63;100.00;96712.91;5924733;29;96437;-55
2024/01/15 04:12:27;;;;;;;;;3.20;3.20;;;;;5.69;100.00;96711.94;5922753;29;96256;-56
2024/01/15 04:15:30;;;;;;;;;4.00;4.00;;;;;5.71;100.00;96709.84;5921168;29;96326;-56
2024/01/15 04:18:33;;;;;;;;;5.20;4.80;;;;;5.64;100.00;96682.44;5929410;29;98370;-56
2024/01/15 04:21:36;;;;;;;;;5.00;5.00;;;;;5.66;100.00;96691.03;5925582;29;96294;-56
2024/01/15 04:24:39;;;;;;;;;4.40;4.40;;;;;5.65;100.00;96697.44;5919015;29;96322;-56
2024/01/15 04:27:44;;;;;;;;;5.00;5.00;;;;;5.65;100.00;96682.22;5922893;29;96676;-55
2024/01/15 04:30:47;;;;;;;;;6.60;5.00;;;;;5.64;100.00;96677.91;5927819;29;96779;-56
2024/01/15 04:33:50;;;;;;;;;5.40;4.00;;;;;5.56;100.00;96664.16;5925490;29;96366;-56
2024/01/15 04:36:54;;;;;;;;;6.00;5.40;;;;;5.75;100.00;96678.88;5916750;29;96265;-56
2024/01/15 04:39:57;;;;;;;;;4.40;4.40;;;;;5.60;100.00;96690.16;5910370;29;96357;-56
2024/01/15 04:43:02;;;;;;;;;5.00;5.00;;;;;5.48;100.00;96686.75;5922263;29;96335;-56
2024/01/15 04:46:06;;;;;;;;;6.00;4.00;;;;;5.50;100.00;96687.31;5923933;29;96614;-56
2024/01/15 04:49:10;;;;;;;;;5.00;4.75;;;;;5.58;100.00;96686.09;5917417;29;96681;-56
2024/01/15 04:52:13;;;;;;;;;6.40;5.60;;;;;5.66;100.00;96678.50;5924732;29;96915;-56
2024/01/15 04:55:16;;;;;;;;;6.00;5.00;;;;;5.79;100.00;96679.19;5924026;29;96368;-56
2024/01/15 04:58:20;;;;;;;;;6.00;5.20;;;;;5.73;100.00;96670.28;5925284;29;96264;-55
2024/01/15 05:01:24;;;;;;;;;6.40;6.00;;;;;5.57;100.00;96679.16;5919700;29;96755;-56
2024/01/15 05:04:27;;;;;;;;;5.00;4.80;;;;;5.60;100.00;96694.69;5931252;29;96815;-56
2024/01/15 05:07:30;;;;;;;;;4.60;4.00;;;;;5.59;100.00;96677.03;5921139;29;96939;-56
2024/01/15 05:10:33;;;;;;;;;4.00;4.00;;;;;5.54;100.00;96669.75;5925961;29;95956;-55
2024/01/15 05:13:38;;;;;;;;;5.00;4.00;;;;;5.45;100.00;96668.53;5917446;29;96710;-55
2024/01/15 05:16:47;;;;;;;;;5.00;4.00;;;;;5.42;100.00;96676.22;5918994;29;96257;-55
2024/01/15 05:19:50;;;;;;;;;4.40;3.20;;;;;5.50;100.00;96681.97;5919616;29;97236;-57
2024/01/15 05:22:53;;;;;;;;;4.40;3.60;;;;;5.49;100.00;96666.16;5923594;29;96406;-56
2024/01/15 05:25:56;;;;;;;;;4.00;3.50;;;;;5.46;100.00;96661.31;5928412;29;96814;-56
2024/01/15 05:29:01;;;;;;;;;4.40;4.40;;;;;5.28;100.00;96651.66;5923132;29;97117;-55
2024/01/15 05:32:04;;;;;;;;;4.00;4.00;;;;;5.57;100.00;96668.47;5925792;29;97048;-56
2024/01/15 05:35:08;;;;;;;;;4.00;3.00;;;;;5.58;100.00;96670.06;5925955;29;96300;-56
2024/01/15 05:38:11;;;;;;;;;5.00;4.40;;;;;5.59;100.00;96667.16;5923161;29;96350;-55
2024/01/15 05:41:14;;;;;;;;;5.00;4.00;;;;;5.71;100.00;96674.28;5925331;29;96240;-56
2024/01/15 05:44:19;;;;;;;;;5.00;5.00;;;;;5.79;100.00;96674.66;5906155;29;96302;-57
2024/01/15 05:47:22;;;;;;;;;6.00;5.00;;;;;5.85;100.00;96662.19;5924809;29;96302;-57
2024/01/15 05:50:25;;;;;;;;;5.50;5.00;;;;;5.79;100.00;96653.28;5927992;29;96858;-57
2024/01/15 05:53:28;;;;;;;;;4.00;4.00;;;;;5.72;100.00;96657.97;5913473;29;96258;-57
2024/01/15 05:56:31;;;;;;;;;4.25;4.00;;;;;5.71;100.00;96659.06;5925857;29;96465;-57
2024/01/15 05:59:36;;;;;;;;;4.40;4.40;;;;;5.72;100.00;96655.28;5908617;29;96311;-57
2024/01/15 06:02:39;;;;;;;;;7.80;7.00;;;;;5.82;100.00;96654.63;5921525;29;96424;-57
2024/01/15 06:05:43;;;;;;;;;4.00;3.00;;;;;5.64;100.00;96653.84;5925657;29;96480;-57
2024/01/15 06:08:46;;;;;;;;;5.60;4.60;;;;;5.51;100.00;96664.91;5923922;29;96661;-57
2024/01/15 06:11:49;;;;;;;;;4.40;4.00;;;;;5.62;100.00;96668.50;5922272;29;96432;-57
2024/01/15 06:14:53;;;;;;;;;4.00;4.00;;;;;5.62;100.00;96668.50;5926915;29;96792;-57
2024/01/15 06:17:56;;;;;;;;;5.00;4.00;;;;;5.53;100.00;96659.28;5929471;29;96350;-57
2024/01/15 06:21:00;;;;;;;;;6.00;5.80;;;;;5.59;100.00;96650.28;5928713;29;96349;-57
2024/01/15 06:24:03;;;;;;;;;7.20;6.80;;;;;5.57;100.00;96676.47;5923125;29;96948;-57
2024/01/15 06:27:06;;;;;;;;;7.00;6.00;;;;;5.57;100.00;96666.56;5928663;29;96211;-57
2024/01/15 06:30:12;;;;;;;;;7.00;7.00;;;;;5.56;100.00;96680.19;5931242;29;97005;-57
2024/01/15 06:33:15;;;;;;;;;5.00;4.80;;;;;5.75;100.00;96672.72;5928970;29;96275;-57
2024/01/15 06:36:18;;;;;;;;;7.00;6.00;;;;;5.84;100.00;96671.25;5916513;29;96760;-57
2024/01/15 06:39:22;;;;;;;;;5.00;5.00;;;;;5.78;100.00;96670.38;5908683;29;96767;-57
2024/01/15 06:42:26;;;;;;;;;7.33;7.00;;;;;5.78;100.00;96662.34;5920086;29;96777;-57
2024/01/15 06:45:30;;;;;;;;;8.00;7.00;;;;;5.92;100.00;96660.97;5928066;29;96485;-57
2024/01/15 06:48:33;;;;;;;;;4.80;4.80;;;;;5.81;100.00;96658.38;5927756;29;96374;-57
2024/01/15 06:51:37;;;;;;;;;9.00;9.00;;;;;5.79;100.00;96657.81;5923156;29;96456;-56
2024/01/15 06:54:40;;;;;;;;;6.00;6.00;;;;;5.79;100.00;96658.63;5926739;29;96584;-56
2024/01/15 06:57:43;;;;;;;;;6.60;6.60;;;;;5.79;100.00;96663.97;5921915;29;96913;-56
2024/01/15 07:00:47;;;;;;;;;6.20;6.20;;;;;5.87;100.00;96665.44;5935149;29;96425;-57
2024/01/15 07:03:51;;;;;;;;;10.00;9.00;;;;;5.83;100.00;96667.75;5924862;29;96607;-56
2024/01/15 07:06:54;;;;;;;;;7.20;6.20;;;;;5.95;100.00;96668.53;5924519;29;96522;-56
2024/01/15 07:09:57;;;;;;;;;9.80;8.00;;;;;5.92;100.00;96673.53;5923370;29;96529;-56
2024/01/15 07:13:00;;;;;;;;;7.00;7.00;;;;;6.00;100.00;96681.97;5926822;29;96324;-56
2024/01/15 07:16:05;;;;;;;;;7.00;7.00;;;;;6.06;100.00;96683.63;5922612;29;96371;-56
2024/01/15 07:19:08;;;;;;;;;8.60;8.00;;;;;6.12;100.00;96679.16;5918329;29;96522;-56
2024/01/15 07:22:12;;;;;;;;;8.00;7.80;;;;;6.18;100.00;96672.03;5920746;29;96290;-56
2024/01/15 07:25:16;;;;;;;;;8.00;7.00;;;;;6.21;100.00;96682.22;5926327;29;96978;-56
2024/01/15 07:28:20;;;;;;;;;8.75;8.00;;;;;6.15;100.00;96676.00;5925306;29;96261;-57
2024/01/15 07:31:24;;;;;;;;;8.40;8.00;;;;;6.25;100.00;96688.72;5919348;29;96481;-56
2024/01/15 07:34:28;;;;;;;;;7.80;7.80;;;;;6.29;100.00;96687.16;5918402;29;96458;-56
2024/01/15 07:37:31;;;;;;;;;11.00;10.00;;;;;6.30;100.00;96692.28;5919274;29;96281;-56
2024/01/15 07:40:34;;;;;;;;;9.00;8.60;;;;;6.28;100.00;96698.91;5919056;29;96181;-56
2024/01/15 07:43:39;;;;;;;;;9.00;9.00;;;;;6.28;100.00;96709.59;5924577;29;96945;-56
2024/01/15 07:46:46;;;;;;;;;9.60;9.40;;;;;6.43;100.00;96712.50;5925628;29;96775;-57
2024/01/15 07:49:49;;;;;;;;;10.50;9.00;;;;;6.62;100.00;96713.78;5920733;29;96542;-56
2024/01/15 07:52:53;;;;;;;;;8.00;7.60;;;;;6.59;100.00;96713.50;5929019;29;96343;-56
2024/01/15 07:55:56;;;;;;;;;10.80;8.80;;;;;6.63;100.00;96720.78;5921615;29;96280;-57
2024/01/15 07:58:59;;;;;;;;;11.00;9.25;;;;;6.69;100.00;96718.97;5917781;29;96316;-56
2024/01/15 08:02:04;;;;;;;;;11.00;10.00;;;;;6.69;100.00;96725.16;5924685;29;98520;-57
2024/01/15 08:05:07;;;;;;;;;11.00;10.00;;;;;6.77;100.00;96711.31;5912688;29;96403;-57
2024/01/15 08:08:11;;;;;;;;;9.50;9.00;;;;;6.78;100.00;96715.59;5922379;29;96476;-57
2024/01/15 08:11:14;;;;;;;;;8.00;7.00;;;;;7.00;100.00;96728.97;5923979;29;97638;-57
2024/01/15 08:14:18;;;;;;;;;13.40;11.00;;;;;7.34;100.00;96716.19;5927691;29;96850;-57
2024/01/15 08:17:23;;;;;;;;;11.00;10.40;;;;;7.56;100.00;96718.78;5912537;29;96368;-57
2024/01/15 08:20:26;;;;;;;;;9.00;9.00;;;;;7.88;100.00;96716.91;5927374;29;98093;-57
2024/01/15 08:23:31;;;;;;;;;12.00;10.60;;;;;8.02;100.00;96722.63;5912776;29;96444;-57
2024/01/15 08:26:34;;;;;;;;;13.00;12.00;;;;;7.94;100.00;96736.53;5912214;29;96487;-57
2024/01/15 08:29:37;;;;;;;;;12.20;10.80;;;;;7.53;100.00;96746.09;5918905;29;96308;-57
2024/01/15 08:32:42;;;;;;;;;11.75;11.00;;;;;7.23;100.00;96735.91;5919776;29;96365;-57
2024/01/15 08:35:46;;;;;;;;;8.00;7.00;;;;;6.88;100.00;96737.16;5914858;29;96876;-57
2024/01/15 08:38:49;;;;;;;;;10.50;9.00;;;;;6.83;100.00;96742.44;5911920;29;96378;-57
2024/01/15 08:41:52;;;;;;;;;10.00;9.00;;;;;6.57;100.00;96734.34;5915219;29;98858;-57
2024/01/15 08:44:55;;;;;;;;;9.25;9.00;;;;;6.50;100.00;96707.75;5919762;29;96385;-57
2024/01/15 08:48:00;;;;;;;;;12.50;12.00;;;;;6.78;100.00;96733.53;5916278;29;96531;-57
2024/01/15 08:51:04;;;;;;;;;8.20;7.80;;;;;6.87;100.00;96737.38;5912328;29;96960;-57
2024/01/15 08:54:08;;;;;;;;;10.00;8.60;;;;;7.21;100.00;96730.00;5915184;29;97127;-57
2024/01/15 08:57:11;;;;;;;;;9.20;9.00;;;;;7.45;100.00;96738.53;5926004;29;96314;-57
2024/01/15 09:00:16;;;;;;;;;10.00;9.00;;;;;7.67;100.00;96726.66;5930863;29;96380;-57
2024/01/15 09:03:20;;;;;;;;;11.00;10.00;;;;;7.93;100.00;96722.31;5924202;29;96451;-57
2024/01/15 09:06:23;;;;;;;;;12.00;12.00;;;;;8.21;100.00;96731.88;5926061;29;96351;-57
2024/01/15 09:09:27;;;;;;;;;12.00;11.00;;;;;8.64;100.00;96736.19;5906961;29;98484;-57
2024/01/15 09:12:30;;;;;;;;;12.00;11.25;;;;;8.82;100.00;96741.09;5916211;29;96411;-57
2024/01/15 09:15:33;;;;;;;;;11.50;10.50;;;;;9.10;100.00;96743.34;5937390;29;96371;-57
2024/01/15 09:18:38;;;;;;;;;11.50;10.00;;;;;9.36;99.17;96741.53;5919977;29;96318;-57
2024/01/15 09:21:41;;;;;;;;;11.20;9.60;;;;;9.31;95.59;96757.66;5922650;29;96635;-57
2024/01/15 09:24:44;;;;;;;;;13.40;11.00;;;;;9.26;95.52;96746.91;5920245;29;96294;-56
2024/01/15 09:27:48;;;;;;;;;10.40;10.40;;;;;9.10;95.53;96748.72;5924439;29;96194;-57
2024/01/15 09:30:51;;;;;;;;;11.00;10.00;;;;;9.05;96.01;96756.78;5941606;29;97243;-56
2024/01/15 09:33:58;;;;;;;;;14.75;12.50;;;;;8.74;95.84;96765.78;5928201;29;96269;-57
2024/01/15 09:37:02;;;;;;;;;9.20;9.00;;;;;8.14;96.87;96764.31;5924669;29;96407;-57
2024/01/15 09:40:09;;;;;;;;;12.60;11.00;;;;;7.92;100.00;96752.88;5926786;29;96341;-57
2024/01/15 09:43:13;;;;;;;;;11.50;11.00;;;;;8.03;100.00;96740.34;5933425;29;96420;-57
2024/01/15 09:46:17;;;;;;;;;12.00;11.00;;;;;8.57;99.87;96757.09;5929647;29;96528;-57
2024/01/15 09:49:23;;;;;;;;;12.40;11.40;;;;;8.88;94.58;96752.69;5923949;29;96907;-57
2024/01/15 09:52:26;;;;;;;;;10.60;10.00;;;;;8.82;94.83;96751.84;5924888;29;96493;-57
2024/01/15 09:55:30;;;;;;;;;11.00;10.20;;;;;8.43;95.97;96758.63;5931142;29;97351;-57
2024/01/15 09:58:35;;;;;;;;;11.40;10.60;;;;;8.08;100.00;96757.31;5944967;29;96449;-57
2024/01/15 10:01:40;;;;;;;;;13.00;11.00;;;;;7.76;100.00;96767.25;5925111;29;96253;-57
2024/01/15 10:04:45;;;;;;;;;7.80;7.80;;;;;7.40;100.00;96725.88;5924720;29;96664;-57
2024/01/15 10:07:50;;;;;;;;;11.00;9.80;;;;;7.43;100.00;96744.13;5935777;29;97184;-57
2024/01/15 10:10:53;;;;;;;;;11.80;10.00;;;;;7.68;100.00;96751.59;5924385;29;96341;-57
2024/01/15 10:13:57;;;;;;;;;12.00;11.40;;;;;7.74;100.00;96748.72;5927516;29;98579;-57
2024/01/15 10:17:00;;;;;;;;;12.40;11.00;;;;;7.72;100.00;96750.06;5932187;29;96591;-57
2024/01/15 10:20:09;;;;;;;;;14.00;13.00;;;;;7.48;100.00;96756.81;5930423;29;96407;-57
2024/01/15 10:23:12;;;;;;;;;11.60;10.00;;;;;7.38;100.00;96752.94;5916578;29;96582;-57
2024/01/15 10:26:15;;;;;;;;;11.60;11.00;;;;;7.38;100.00;96750.25;5915831;29;96335;-57
2024/01/15 10:29:21;;;;;;;;;11.00;11.00;;;;;7.29;100.00;96742.94;5922252;29;96528;-57
2024/01/15 10:32:24;;;;;;;;;11.20;10.80;;;;;7.24;100.00;96756.28;5935161;29;96445;-57
2024/01/15 10:35:30;;;;;;;;;13.50;12.50;;;;;6.93;100.00;96725.69;5921795;29;96399;-57
2024/01/15 10:38:33;;;;;;;;;13.00;12.00;;;;;7.01;100.00;96748.53;5921443;29;96485;-57
2024/01/15 10:41:37;;;;;;;;;13.00;12.00;;;;;7.00;100.00;96741.53;5929099;29;96387;-57
2024/01/15 10:44:40;;;;;;;;;9.25;8.25;;;;;6.80;100.00;96747.47;5913745;29;96949;-57
2024/01/15 10:47:43;;;;;;;;;12.00;11.20;;;;;6.81;100.00;96741.88;5919969;29;97167;-57
2024/01/15 10:50:48;;;;;;;;;12.00;11.00;;;;;6.60;100.00;96731.19;5907505;29;96913;-57
2024/01/15 10:53:52;;;;;;;;;11.00;9.60;;;;;6.80;100.00;96740.25;5927553;29;97507;-57
2024/01/15 10:56:56;;;;;;;;;10.60;9.00;;;;;6.74;100.00;96735.91;5913617;29;96349;-57
2024/01/15 11:00:00;;;;;;;;;13.50;10.50;;;;;6.97;100.00;96729.47;5928778;29;97059;-57
2024/01/15 11:03:05;;;;;;;;;12.40;10.00;;;;;7.01;100.00;96725.22;5938058;29;97397;-57
2024/01/15 11:06:19;;;;;;;;;10.60;9.60;;;;;7.13;100.00;96744.66;5916024;29;97837;-57
2024/01/15 11:09:24;;;;;;;;;10.00;8.60;;;;;7.11;99.33;96721.84;5921657;29;96396;-57
2024/01/15 11:12:27;;;;;;;;;11.00;10.00;;;;;7.22;97.06;96723.56;5905893;29;96801;-57
2024/01/15 11:15:31;;;;;;;;;11.50;9.00;;;;;7.93;94.39;96719.63;5913977;29;96511;-57
2024/01/15 11:18:37;;;;;;;;;11.40;10.00;;;;;9.75;85.05;96716.84;5910770;29;99070;-57
2024/01/15 11:21:45;;;;;;;;;10.00;9.00;;;;;12.71;75.70;96724.69;5918036;29;97610;-57
2024/01/15 11:24:48;;;;;;;;;8.40;7.40;;;;;13.09;65.50;96726.41;5920873;29;96348;-57
2024/01/15 11:27:53;;;;;;;;;12.40;10.40;;;;;12.43;66.73;96720.94;5919081;29;96958;-57
2024/01/15 11:30:57;;;;;;;;;10.00;8.40;;;;;11.87;67.56;96720.66;5909682;29;96288;-57
2024/01/15 11:34:01;;;;;;;;;10.00;9.00;;;;;13.44;62.33;96717.00;5917556;29;96543;-57
2024/01/15 11:37:06;;;;;;;;;11.00;9.00;;;;;15.87;58.50;96717.88;5917746;29;96711;-57
2024/01/15 11:40:12;;;;;;;;;12.00;11.00;;;;;17.28;50.11;96695.06;5917178;29;96581;-57
2024/01/15 11:43:20;;;;;;;;;13.00;12.00;;;;;18.18;46.03;96719.78;5913009;29;96614;-56
2024/01/15 11:46:32;;;;;;;;;12.00;11.00;;;;;18.56;44.97;96711.72;5913542;29;96552;-56
2024/01/15 11:49:59;;;;;;;;;12.20;10.80;;;;;19.23;45.18;96717.22;5914055;29;96956;-56
2024/01/15 11:53:07;;;;;;;;;10.00;10.00;;;;;18.85;43.85;96719.97;5915983;29;97620;-56
2024/01/15 11:56:16;;;;;;;;;12.50;11.00;;;;;16.60;48.84;96722.03;5924972;29;97029;-56
2024/01/15 11:59:20;;;;;;;;;14.00;13.00;;;;;14.53;53.01;96730.97;5926886;29;96591;-56
2024/01/15 12:02:23;;;;;;;;;12.00;11.00;;;;;12.52;59.42;96695.69;5926915;29;96713;-56
2024/01/15 12:05:26;;;;;;;;;13.80;11.00;;;;;11.43;63.74;96731.47;5927541;29;96799;-55
2024/01/15 12:08:31;;;;;;;;;11.00;10.20;;;;;10.28;68.74;96728.94;5927023;29;97084;-55
2024/01/15 12:11:40;;;;;;;;;12.75;11.00;;;;;9.41;72.52;96741.56;5927370;29;96504;-55
2024/01/15 12:14:43;;;;;;;;;12.40;12.40;;;;;8.80;76.12;96727.13;5927136;29;96215;-57
2024/01/15 12:17:47;;;;;;;;;14.00;12.60;;;;;8.53;78.12;96727.28;5932709;29;96334;-57
2024/01/15 12:20:51;;;;;;;;;17.00;14.00;;;;;7.92;78.95;96725.22;5922023;29;97100;-57
2024/01/15 12:23:56;;;;;;;;;14.00;12.00;;;;;7.79;80.61;96724.63;5936135;29;98434;-57
2024/01/15 12:27:00;;;;;;;;;14.00;12.00;;;;;7.91;81.82;96715.59;5914248;29;98387;-58
2024/01/15 12:30:03;;;;;;;;;12.00;11.00;;;;;7.81;81.26;96713.66;5915282;29;96283;-57
2024/01/15 12:33:08;;;;;;;;;15.00;13.60;;;;;7.88;81.85;96700.81;5921620;29;96201;-57
2024/01/15 12:36:14;;;;;;;;;11.00;10.60;;;;;8.19;81.74;96713.38;5910647;29;96409;-57
2024/01/15 12:39:18;;;;;;;;;12.00;12.00;;;;;7.89;81.44;96725.75;5924008;29;96360;-57
2024/01/15 12:42:22;;;;;;;;;12.00;11.00;;;;;7.72;80.95;96731.28;5938478;29;96407;-57
2024/01/15 12:45:25;;;;;;;;;13.40;12.40;;;;;7.74;83.26;96713.84;5949971;29;96788;-57
2024/01/15 12:48:28;;;;;;;;;9.60;8.60;;;;;7.56;83.36;96729.53;5947647;29;96158;-56
2024/01/15 12:51:35;;;;;;;;;12.20;11.40;;;;;7.63;83.20;96727.41;5936334;29;96684;-57
2024/01/15 12:54:39;;;;;;;;;12.00;11.00;;;;;7.75;82.45;96728.06;5941986;29;98229;-57
2024/01/15 12:57:42;;;;;;;;;14.00;13.00;;;;;7.84;83.89;96731.91;5942381;29;98355;-57
2024/01/15 13:00:46;;;;;;;;;11.00;10.50;;;;;7.57;83.83;96707.00;5932524;29;96303;-57
2024/01/15 13:03:50;;;;;;;;;11.20;10.20;;;;;7.75;83.80;96726.19;5933390;29;96485;-57
2024/01/15 13:06:53;;;;;;;;;13.20;11.60;;;;;7.61;82.60;96716.16;5931283;29;96344;-57
2024/01/15 13:09:58;;;;;;;;;11.50;11.00;;;;;7.45;82.05;96719.75;5942508;29;96294;-57
2024/01/15 13:13:01;;;;;;;;;13.00;12.60;;;;;7.67;82.88;96713.25;5926524;29;96308;-57
2024/01/15 13:16:05;;;;;;;;;14.40;12.80;;;;;7.65;83.41;96717.25;5929771;29;96300;-57
2024/01/15 13:19:10;;;;;;;;;15.00;13.00;;;;;7.22;83.74;96718.22;5940772;29;96305;-57
2024/01/15 13:22:14;;;;;;;;;9.40;8.40;;;;;7.32;83.49;96713.78;5940623;29;96946;-57
2024/01/15 13:25:20;;;;;;;;;10.40;9.00;;;;;7.33;83.28;96709.22;5936586;29;96738;-57
2024/01/15 13:28:24;;;;;;;;;11.00;10.00;;;;;7.40;84.08;96699.91;5928480;29;96517;-57
2024/01/15 13:31:28;;;;;;;;;11.75;11.00;;;;;7.29;84.06;96687.47;5939512;29;96323;-57
2024/01/15 13:34:32;;;;;;;;;13.00;10.00;;;;;7.09;84.37;96702.53;5939655;29;96740;-57
2024/01/15 13:37:37;;;;;;;;;12.75;11.00;;;;;6.91;84.13;96692.97;5939669;29;96402;-57
2024/01/15 13:40:41;;;;;;;;;11.00;10.00;;;;;6.92;84.58;96705.31;5924963;29;96415;-57
2024/01/15 13:43:44;;;;;;;;;10.60;9.60;;;;;6.92;85.04;96689.25;5937895;29;96260;-57
2024/01/15 13:46:47;;;;;;;;;9.00;7.50;;;;;6.90;85.47;96694.03;5939852;29;96179;-57
2024/01/15 13:49:50;;;;;;;;;9.00;8.50;;;;;6.71;85.16;96685.53;5940141;29;96235;-57
2024/01/15 13:52:53;;;;;;;;;12.00;10.00;;;;;6.86;84.66;96695.59;5935042;29;96571;-57
2024/01/15 13:55:58;;;;;;;;;12.60;10.60;;;;;6.80;85.27;96704.63;5923745;29;96640;-57
2024/01/15 13:59:03;;;;;;;;;13.80;12.00;;;;;6.85;86.16;96710.03;5917470;29;96333;-57
2024/01/15 14:02:07;;;;;;;;;14.25;11.25;;;;;6.78;86.36;96696.06;5927687;29;96356;-56
2024/01/15 14:05:12;;;;;;;;;12.00;11.00;;;;;6.83;85.89;96688.88;5928746;29;96388;-57
2024/01/15 14:08:15;;;;;;;;;10.00;10.00;;;;;6.87;86.73;96699.91;5925628;29;96561;-57
2024/01/15 14:11:22;;;;;;;;;11.50;11.00;;;;;6.77;86.25;96705.13;5930201;29;96280;-57
2024/01/15 14:14:26;;;;;;;;;13.00;11.40;;;;;6.82;86.26;96695.28;5929707;29;96291;-56
2024/01/15 14:17:29;;;;;;;;;13.00;11.00;;;;;6.79;86.98;96695.00;5926923;29;96282;-57
2024/01/15 14:20:32;;;;;;;;;10.20;9.80;;;;;6.48;87.21;96707.19;5929496;29;96299;-57